createdAt,value
2019-04-01T00:00:46.974Z,5.56
2019-04-01T00:03:54.299Z,5.37
2019-04-01T00:07:01.659Z,5.51
2019-04-01T00:10:09.752Z,5.43
2019-04-01T00:13:26.393Z,5.34
2019-04-01T00:16:33.621Z,5.24
2019-04-01T00:19:50.757Z,5.21
2019-04-01T00:22:58.276Z,5.10
2019-04-01T00:26:05.831Z,5.19
2019-04-01T00:29:13.366Z,5.01
2019-04-01T00:32:20.524Z,5.01
2019-04-01T00:35:27.760Z,5.00
2019-04-01T00:38:34.891Z,5.05
2019-04-01T00:41:59.594Z,4.89
2019-04-01T00:45:08.552Z,4.85
2019-04-01T00:48:15.796Z,4.82
2019-04-01T00:51:23.035Z,4.81
2019-04-01T00:54:30.166Z,4.89
2019-04-01T00:57:37.377Z,5.01
2019-04-01T01:00:44.625Z,4.99
2019-04-01T01:03:51.841Z,4.87
2019-04-01T01:06:59.384Z,4.76
2019-04-01T01:10:08.193Z,4.82
2019-04-01T01:13:15.537Z,4.74
2019-04-01T01:16:22.789Z,4.75
2019-04-01T01:19:30.642Z,4.61
2019-04-01T01:22:36.877Z,4.60
2019-04-01T01:25:44.088Z,4.52
2019-04-01T01:28:51.373Z,4.77
2019-04-01T01:31:58.638Z,4.65
2019-04-01T01:35:06.152Z,4.70
2019-04-01T01:38:22.684Z,4.69
2019-04-01T01:41:29.823Z,4.55
2019-04-01T01:44:36.948Z,4.51
2019-04-01T01:47:44.333Z,4.51
2019-04-01T01:50:51.585Z,4.46
2019-04-01T01:54:08.290Z,4.43
2019-04-01T01:57:15.503Z,4.32
2019-04-01T02:00:23.879Z,4.41
2019-04-01T02:03:31.120Z,4.32
2019-04-01T02:06:38.259Z,4.28
2019-04-01T02:09:43.873Z,4.40
2019-04-01T02:12:51.116Z,4.48
2019-04-01T02:15:58.355Z,4.45
2019-04-01T02:19:05.703Z,4.34
2019-04-01T02:22:13.017Z,4.44
2019-04-01T02:25:20.353Z,4.37
2019-04-01T02:28:28.133Z,4.27
2019-04-01T02:31:35.430Z,4.27
2019-04-01T02:34:42.699Z,4.27
2019-04-01T02:37:49.996Z,4.17
2019-04-01T02:40:57.403Z,4.05
2019-04-01T02:44:04.802Z,3.99
2019-04-01T02:47:12.102Z,3.93
2019-04-01T02:50:19.345Z,3.97
2019-04-01T02:53:26.766Z,4.03
2019-04-01T02:56:43.481Z,3.95
2019-04-01T02:59:50.708Z,3.99
2019-04-01T03:02:58.374Z,4.08
2019-04-01T03:06:05.996Z,3.97
2019-04-01T03:09:13.231Z,3.97
2019-04-01T03:12:20.795Z,3.84
2019-04-01T03:15:27.942Z,3.94
2019-04-01T03:18:35.163Z,3.88
2019-04-01T03:21:42.558Z,3.85
2019-04-01T03:24:50.241Z,3.81
2019-04-01T03:28:07.178Z,3.73
2019-04-01T03:31:14.395Z,3.86
2019-04-01T03:34:31.143Z,3.85
2019-04-01T03:37:38.344Z,3.87
2019-04-01T03:40:55.356Z,3.94
2019-04-01T03:44:11.943Z,3.91
2019-04-01T03:47:28.939Z,3.81
2019-04-01T03:50:45.518Z,3.59
2019-04-01T03:54:02.313Z,3.67
2019-04-01T03:57:19.107Z,3.73
2019-04-01T04:00:26.392Z,3.60
2019-04-01T04:03:43.142Z,3.64
2019-04-01T04:06:59.868Z,3.66
2019-04-01T04:10:16.758Z,3.69
2019-04-01T04:13:33.449Z,3.58
2019-04-01T04:16:40.648Z,3.57
2019-04-01T04:19:57.360Z,3.53
2019-04-01T04:23:14.200Z,3.63
2019-04-01T04:26:30.961Z,3.43
2019-04-01T04:29:47.744Z,3.39
2019-04-01T04:32:55.079Z,3.33
2019-04-01T04:36:12.029Z,3.39
2019-04-01T04:39:28.600Z,3.49
2019-04-01T04:42:45.398Z,3.47
2019-04-01T04:46:02.219Z,3.38
2019-04-01T04:49:09.847Z,3.43
2019-04-01T04:52:15.983Z,3.42
2019-04-01T04:55:23.263Z,3.44
2019-04-01T04:58:30.391Z,3.57
2019-04-01T05:01:37.626Z,3.56
2019-04-01T05:04:44.859Z,3.50
2019-04-01T05:07:52.184Z,3.44
2019-04-01T05:10:59.587Z,3.60
2019-04-01T05:14:06.845Z,3.40
2019-04-01T05:17:14.493Z,3.34
2019-04-01T05:20:32.683Z,3.51
2019-04-01T05:23:50.045Z,3.56
2019-04-01T05:26:58.303Z,3.62
2019-04-01T05:30:06.111Z,3.49
2019-04-01T05:33:14.718Z,3.46
2019-04-01T05:36:34.934Z,3.46
2019-04-01T05:39:51.468Z,3.36
2019-04-01T05:43:08.510Z,3.45
2019-04-01T05:46:25.173Z,3.47
2019-04-01T05:49:41.949Z,3.41
2019-04-01T05:52:49.654Z,3.47
2019-04-01T05:55:56.988Z,3.56
2019-04-01T05:59:04.320Z,3.65
2019-04-01T06:02:11.818Z,3.70
2019-04-01T06:05:19.128Z,3.75
2019-04-01T06:08:26.528Z,3.74
2019-04-01T06:11:34.164Z,3.74
2019-04-01T06:14:50.848Z,3.87
2019-04-01T06:17:58.047Z,3.84
2019-04-01T06:21:14.890Z,4.02
2019-04-01T06:24:32.009Z,4.05
2019-04-01T06:27:39.319Z,4.04
2019-04-01T06:30:46.711Z,4.04
2019-04-01T06:33:54.038Z,4.12
2019-04-01T06:37:01.343Z,4.11
2019-04-01T06:40:08.925Z,4.14
2019-04-01T06:43:16.343Z,4.20
2019-04-01T06:46:23.702Z,4.20
2019-04-01T06:49:40.345Z,4.30
2019-04-01T06:52:47.635Z,4.21
2019-04-01T06:55:54.637Z,4.23
2019-04-01T06:59:02.002Z,4.26
2019-04-01T07:02:18.729Z,4.39
2019-04-01T07:05:26.237Z,4.38
2019-04-01T07:08:42.727Z,4.41
2019-04-01T07:11:59.732Z,4.44
2019-04-01T07:15:16.337Z,4.66
2019-04-01T07:18:33.273Z,4.69
2019-04-01T07:21:50.061Z,4.75
2019-04-01T07:25:06.909Z,4.79
2019-04-01T07:28:14.215Z,4.80
2019-04-01T07:31:30.959Z,4.99
2019-04-01T07:34:47.625Z,4.94
2019-04-01T07:37:54.828Z,4.90
2019-04-01T07:41:11.667Z,5.15
2019-04-01T07:44:28.478Z,5.30
2019-04-01T07:47:45.238Z,5.35
2019-04-01T07:51:01.976Z,5.40
2019-04-01T07:54:08.812Z,5.39
2019-04-01T07:57:16.105Z,5.59
2019-04-01T08:00:23.412Z,5.77
2019-04-01T08:03:30.762Z,5.70
2019-04-01T08:06:38.102Z,5.70
2019-04-01T08:09:54.767Z,5.81
2019-04-01T08:13:02.051Z,5.91
2019-04-01T08:16:18.854Z,5.95
2019-04-01T08:19:35.632Z,6.09
2019-04-01T08:22:43.421Z,6.05
2019-04-01T08:25:50.943Z,6.17
2019-04-01T08:28:58.368Z,6.21
2019-04-01T08:32:05.761Z,6.45
2019-04-01T08:35:13.068Z,6.47
2019-04-01T08:38:20.379Z,6.41
2019-04-01T08:41:37.222Z,6.26
2019-04-01T08:44:53.936Z,6.46
2019-04-01T08:48:10.760Z,6.64
2019-04-01T08:51:27.475Z,6.63
2019-04-01T08:54:34.860Z,6.88
2019-04-01T08:57:51.587Z,7.04
2019-04-01T09:01:08.368Z,6.85
2019-04-01T09:04:25.198Z,6.69
2019-04-01T09:07:42.616Z,6.88
2019-04-01T09:10:50.301Z,6.80
2019-04-01T09:13:57.609Z,6.82
2019-04-01T09:17:04.824Z,6.69
2019-04-01T09:20:13.797Z,6.79
2019-04-01T09:23:20.925Z,6.92
2019-04-01T09:26:28.286Z,7.32
2019-04-01T09:29:35.541Z,7.31
2019-04-01T09:32:42.900Z,7.41
2019-04-01T09:35:59.552Z,7.58
2019-04-01T09:39:07.713Z,7.63
2019-04-01T09:42:14.916Z,7.44
2019-04-01T09:45:22.149Z,7.21
2019-04-01T09:48:29.351Z,7.49
2019-04-01T09:51:47.842Z,7.55
2019-04-01T09:54:45.412Z,7.65
2019-04-01T09:57:52.548Z,7.76
2019-04-01T10:00:59.866Z,7.91
2019-04-01T10:04:07.211Z,8.02
2019-04-01T10:07:14.594Z,8.05
2019-04-01T10:10:31.496Z,8.13
2019-04-01T10:13:58.387Z,8.25
2019-04-01T10:17:15.165Z,8.17
2019-04-01T10:20:31.872Z,8.37
2019-04-01T10:23:48.748Z,8.53
2019-04-01T10:27:06.281Z,8.49
2019-04-01T10:30:23.766Z,8.67
2019-04-01T10:33:30.972Z,8.68
2019-04-01T10:36:38.218Z,8.71
2019-04-01T10:39:45.579Z,8.89
2019-04-01T10:42:52.705Z,8.83
2019-04-01T10:45:59.979Z,8.98
2019-04-01T10:49:07.291Z,8.86
2019-04-01T10:52:14.646Z,9.17
2019-04-01T10:55:21.536Z,9.02
2019-04-01T10:58:28.738Z,9.20
2019-04-01T11:01:36.197Z,9.36
2019-04-01T11:04:43.541Z,9.34
2019-04-01T11:07:50.943Z,9.28
2019-04-01T11:10:58.012Z,9.31
2019-04-01T11:14:05.295Z,9.53
2019-04-01T11:17:12.521Z,9.47
2019-04-01T11:20:20.235Z,9.65
2019-04-01T11:23:27.764Z,9.69
2019-04-01T11:26:36.690Z,9.71
2019-04-01T11:29:43.938Z,9.98
2019-04-01T11:32:51.435Z,10.04
2019-04-01T11:35:58.703Z,9.93
2019-04-01T11:39:07.133Z,10.16
2019-04-01T11:42:14.402Z,10.31
2019-04-01T11:45:22.502Z,10.50
2019-04-01T11:48:30.179Z,10.44
2019-04-01T11:51:40.017Z,10.59
2019-04-01T11:54:46.360Z,10.66
2019-04-01T11:57:53.691Z,10.73
2019-04-01T12:01:00.985Z,10.90
2019-04-01T12:04:08.233Z,11.10
2019-04-01T12:07:15.656Z,11.34
2019-04-01T12:10:22.957Z,11.62
2019-04-01T12:13:30.272Z,12.08
2019-04-01T12:16:46.951Z,13.16
2019-04-01T12:19:54.180Z,13.77
2019-04-01T12:23:01.425Z,14.11
2019-04-01T12:26:18.287Z,15.58
2019-04-01T12:29:35.147Z,16.34
2019-04-01T12:32:51.837Z,16.32
2019-04-01T12:35:59.197Z,17.08
2019-04-01T12:39:16.116Z,17.31
2019-04-01T12:42:32.877Z,16.44
2019-04-01T12:45:49.894Z,17.39
2019-04-01T12:49:06.946Z,17.34
2019-04-01T12:52:13.103Z,18.85
2019-04-01T12:55:20.396Z,18.61
2019-04-01T12:58:27.551Z,18.83
2019-04-01T13:01:34.787Z,17.89
2019-04-01T13:04:41.998Z,19.39
2019-04-01T13:07:50.403Z,19.06
2019-04-01T13:10:58.271Z,17.61
2019-04-01T13:14:06.771Z,18.98
2019-04-01T13:17:14.002Z,20.24
2019-04-01T13:20:21.329Z,19.61
2019-04-01T13:23:28.444Z,19.11
2019-04-01T13:26:35.680Z,19.35
2019-04-01T13:29:42.994Z,18.34
2019-04-01T13:32:50.227Z,19.60
2019-04-01T13:35:57.459Z,19.78
2019-04-01T13:39:05.977Z,19.56
2019-04-01T13:42:14.540Z,19.40
2019-04-01T13:45:21.818Z,18.56
2019-04-01T13:48:28.942Z,17.96
2019-04-01T13:51:36.182Z,19.87
2019-04-01T13:54:43.573Z,18.07
2019-04-01T13:57:51.020Z,18.82
2019-04-01T14:00:58.321Z,18.94
2019-04-01T14:04:05.703Z,18.47
2019-04-01T14:07:13.088Z,17.90
2019-04-01T14:10:20.403Z,18.36
2019-04-01T14:13:37.264Z,18.20
2019-04-01T14:16:44.391Z,18.20
2019-04-01T14:19:51.629Z,18.64
2019-04-01T14:23:08.520Z,18.15
2019-04-01T14:26:15.743Z,18.35
2019-04-01T14:29:22.970Z,18.16
2019-04-01T14:32:39.797Z,18.45
2019-04-01T14:35:56.616Z,17.95
2019-04-01T14:39:05.783Z,17.53
2019-04-01T14:42:22.185Z,18.21
2019-04-01T14:45:29.388Z,17.67
2019-04-01T14:48:36.637Z,18.06
2019-04-01T14:51:43.873Z,17.58
2019-04-01T14:54:54.772Z,18.01
2019-04-01T14:58:09.513Z,17.87
2019-04-01T15:01:26.385Z,17.39
2019-04-01T15:04:43.194Z,17.81
2019-04-01T15:08:00.109Z,18.16
2019-04-01T15:11:16.939Z,18.22
2019-04-01T15:14:33.693Z,17.80
2019-04-01T15:17:41.070Z,17.42
2019-04-01T15:20:57.851Z,17.75
2019-04-01T15:24:14.565Z,17.62
2019-04-01T15:27:31.381Z,17.31
2019-04-01T15:30:48.178Z,17.46
2019-04-01T15:34:05.113Z,17.54
2019-04-01T15:37:23.132Z,16.42
2019-04-01T15:40:33.177Z,16.61
2019-04-01T15:43:40.176Z,17.08
2019-04-01T15:46:57.975Z,16.71
2019-04-01T15:50:27.819Z,16.08
2019-04-01T15:53:34.752Z,16.32
2019-04-01T15:56:51.561Z,15.60
2019-04-01T15:59:58.799Z,14.46
2019-04-01T16:03:06.023Z,14.65
2019-04-01T16:06:22.847Z,14.53
2019-04-01T16:09:39.641Z,14.80
2019-04-01T16:12:56.406Z,13.55
2019-04-01T16:16:03.771Z,14.01
2019-04-01T16:19:20.469Z,13.85
2019-04-01T16:22:37.273Z,13.55
2019-04-01T16:25:53.994Z,13.47
2019-04-01T16:29:01.136Z,13.40
2019-04-01T16:32:08.455Z,12.86
2019-04-01T16:35:25.325Z,12.73
2019-04-01T16:38:47.979Z,12.34
2019-04-01T16:42:04.845Z,12.59
2019-04-01T16:45:21.627Z,12.83
2019-04-01T16:48:38.659Z,12.62
2019-04-01T16:51:55.126Z,12.25
2019-04-01T16:55:12.218Z,12.36
2019-04-01T16:58:28.849Z,12.39
2019-04-01T17:01:45.601Z,12.33
2019-04-01T17:04:52.879Z,12.34
2019-04-01T17:08:00.079Z,12.41
2019-04-01T17:11:07.368Z,12.33
2019-04-01T17:14:24.415Z,12.25
2019-04-01T17:17:32.213Z,12.04
2019-04-01T17:20:39.499Z,11.89
2019-04-01T17:23:46.811Z,11.84
2019-04-01T17:27:12.766Z,11.88
2019-04-01T17:30:19.997Z,11.59
2019-04-01T17:33:27.263Z,11.59
2019-04-01T17:36:34.530Z,11.67
2019-04-01T17:39:41.799Z,11.55
2019-04-01T17:42:49.097Z,11.33
2019-04-01T17:45:56.403Z,11.30
2019-04-01T17:49:03.807Z,11.12
2019-04-01T17:52:10.952Z,11.16
2019-04-01T17:55:18.337Z,10.88
2019-04-01T17:58:26.090Z,10.81
2019-04-01T18:01:42.377Z,11.05
2019-04-01T18:04:49.560Z,10.74
2019-04-01T18:07:56.867Z,10.78
2019-04-01T18:11:15.979Z,10.46
2019-04-01T18:14:32.049Z,10.34
2019-04-01T18:17:48.755Z,10.16
2019-04-01T18:21:05.629Z,10.23
2019-04-01T18:24:23.147Z,10.26
2019-04-01T18:27:30.867Z,10.24
2019-04-01T18:30:54.113Z,10.22
2019-04-01T18:34:11.197Z,10.23
2019-04-01T18:37:27.529Z,10.15
2019-04-01T18:40:35.858Z,9.91
2019-04-01T18:43:43.156Z,9.87
2019-04-01T18:46:50.329Z,9.81
2019-04-01T18:49:57.543Z,9.66
2019-04-01T18:53:04.877Z,9.62
2019-04-01T18:56:12.155Z,9.61
2019-04-01T18:59:19.389Z,9.46
2019-04-01T19:02:26.619Z,9.46
2019-04-01T19:05:34.052Z,9.30
2019-04-01T19:08:50.760Z,9.42
2019-04-01T19:12:04.056Z,9.24
2019-04-01T19:15:16.565Z,9.20
2019-04-01T19:18:33.170Z,9.31
2019-04-01T19:21:49.980Z,9.23
2019-04-01T19:24:57.435Z,8.97
2019-04-01T19:28:13.958Z,9.02
2019-04-01T19:31:21.292Z,8.80
2019-04-01T19:34:37.934Z,8.86
2019-04-01T19:37:45.254Z,8.55
2019-04-01T19:41:01.944Z,8.76
2019-04-01T19:44:09.346Z,8.62
2019-04-01T19:47:26.057Z,8.78
2019-04-01T19:50:33.470Z,8.54
2019-04-01T19:53:49.971Z,8.73
2019-04-01T19:56:55.805Z,8.61
2019-04-01T20:00:26.624Z,8.53
2019-04-01T20:03:30.807Z,8.43
2019-04-01T20:06:47.694Z,8.29
2019-04-01T20:10:04.931Z,8.50
2019-04-01T20:13:12.267Z,8.39
2019-04-01T20:16:19.639Z,8.00
2019-04-01T20:19:26.950Z,8.25
2019-04-01T20:22:34.086Z,8.30
2019-04-01T20:25:41.459Z,8.32
2019-04-01T20:28:48.695Z,8.28
2019-04-01T20:31:56.022Z,8.23
2019-04-01T20:35:03.327Z,8.19
2019-04-01T20:38:10.625Z,8.21
2019-04-01T20:41:18.024Z,8.10
2019-04-01T20:44:34.799Z,7.92
2019-04-01T20:47:52.377Z,8.03
2019-04-01T20:50:59.576Z,7.79
2019-04-01T20:54:16.625Z,7.84
2019-04-01T20:57:33.151Z,7.78
2019-04-01T21:00:49.943Z,7.85
2019-04-01T21:03:57.069Z,7.98
2019-04-01T21:07:04.650Z,7.94
2019-04-01T21:10:21.144Z,7.99
2019-04-01T21:13:28.334Z,7.93
2019-04-01T21:16:45.112Z,7.84
2019-04-01T21:19:52.359Z,7.77
2019-04-01T21:22:59.483Z,7.71
2019-04-01T21:26:16.362Z,7.68
2019-04-01T21:29:33.132Z,7.73
2019-04-01T21:32:49.836Z,7.63
2019-04-01T21:35:57.066Z,7.53
2019-04-01T21:39:06.411Z,7.44
2019-04-01T21:42:22.699Z,7.65
2019-04-01T21:45:39.427Z,7.57
2019-04-01T21:48:46.726Z,7.53
2019-04-01T21:52:04.508Z,7.47
2019-04-01T21:55:12.210Z,7.47
2019-04-01T21:58:20.062Z,7.41
2019-04-01T22:01:27.672Z,7.34
2019-04-01T22:04:34.138Z,7.42
2019-04-01T22:07:50.799Z,7.61
2019-04-01T22:11:07.709Z,7.41
2019-04-01T22:14:25.266Z,7.15
2019-04-01T22:17:32.806Z,7.31
2019-04-01T22:20:42.600Z,7.20
2019-04-01T22:23:49.123Z,7.23
2019-04-01T22:26:56.497Z,7.06
2019-04-01T22:30:03.908Z,7.11
2019-04-01T22:33:21.032Z,6.97
2019-04-01T22:36:31.141Z,7.14
2019-04-01T22:39:46.579Z,7.14
2019-04-01T22:42:53.890Z,6.82
2019-04-01T22:46:10.724Z,7.06
2019-04-01T22:49:27.372Z,6.99
2019-04-01T22:52:35.377Z,6.91
2019-04-01T22:55:43.013Z,6.79
2019-04-01T22:58:50.308Z,6.82
2019-04-01T23:01:59.560Z,6.88
2019-04-01T23:05:16.174Z,6.69
2019-04-01T23:08:23.471Z,6.69
2019-04-01T23:11:40.229Z,6.70
2019-04-01T23:14:47.521Z,6.72
2019-04-01T23:18:04.342Z,6.87
2019-04-01T23:21:21.104Z,6.81
2019-04-01T23:24:37.988Z,6.74
2019-04-01T23:27:55.477Z,6.55
2019-04-01T23:31:03.042Z,6.74
2019-04-01T23:34:10.438Z,6.46
2019-04-01T23:37:17.562Z,6.63
2019-04-01T23:40:24.879Z,6.53
2019-04-01T23:43:32.300Z,6.59
2019-04-01T23:46:49.019Z,6.58
2019-04-01T23:49:56.319Z,6.52
2019-04-01T23:53:03.439Z,6.47
2019-04-01T23:56:10.642Z,6.55
2019-04-01T23:59:17.931Z,6.34
